Time;durP1;ratioP1;P1;durP2;ratioP2;P2;SDS_P1;SDS_P2;PMS_P1;PMS_P2;Temp;Humidity;BMP_temperature;BMP_pressure;BME280_temperature;BME280_humidity;BME280_pressure;Samples;Min_cycle;Max_cycle;Signal;HPM_P1;HPM_P2
2021/12/21 00:01:16;;;;;;;;;;;6.70;90.30;;;;;;5008307;28;20337;-61
2021/12/21 00:03:41;;;;;;;;;;;6.70;90.30;;;;;;5006460;28;19921;-59
2021/12/21 00:06:07;;;;;;;;;;;6.70;90.40;;;;;;5008302;28;20104;-60
2021/12/21 00:08:32;;;;;;;;;;;6.70;90.40;;;;;;5008761;28;19925;-60
2021/12/21 00:10:59;;;;;;;;;;;6.60;90.30;;;;;;5007726;28;19971;-60
2021/12/21 00:16:02;;;;;;;;;;;6.70;90.30;;;;;;5025781;28;19975;-60
2021/12/21 00:18:38;;;;;;;;;;;6.70;90.30;;;;;;4991511;28;19932;-60
2021/12/21 00:21:20;;;;;;;;;;;6.70;90.30;;;;;;5006984;28;19971;-60
2021/12/21 00:23:49;;;;;;;;;;;6.70;90.30;;;;;;5011082;28;19910;-60
2021/12/21 00:26:16;;;;;;;;;;;6.70;90.20;;;;;;5007757;28;20164;-60
2021/12/21 00:28:56;;;;;;;;;;;6.70;90.10;;;;;;4992251;28;19920;-60
2021/12/21 00:31:22;;;;;;;;;;;6.60;90.10;;;;;;4993026;28;19921;-60
2021/12/21 00:33:48;;;;;;;;;;;6.60;90.10;;;;;;5024064;28;20387;-60
2021/12/21 00:36:14;;;;;;;;;;;6.60;90.20;;;;;;5003256;28;19918;-60
2021/12/21 00:38:40;;;;;;;;;;;6.60;90.20;;;;;;4992870;28;20043;-60
2021/12/21 00:41:05;;;;;;;;;;;6.60;90.30;;;;;;5006314;28;20005;-59
2021/12/21 00:43:31;;;;;;;;;;;6.60;90.30;;;;;;5024177;28;19909;-60
2021/12/21 00:45:56;;;;;;;;;;;6.60;90.30;;;;;;5021979;28;19924;-60
2021/12/21 00:48:27;;;;;;;;;;;6.60;90.30;;;;;;5024412;28;20054;-61
2021/12/21 00:50:53;;;;;;;;;;;6.60;90.30;;;;;;5019918;28;19927;-59
2021/12/21 00:53:18;;;;;;;;;;;6.60;90.20;;;;;;5006950;28;19917;-60
2021/12/21 00:55:44;;;;;;;;;;;6.60;90.20;;;;;;5007721;28;19925;-60
2021/12/21 00:58:09;;;;;;;;;;;6.60;90.30;;;;;;5022378;28;20641;-60
2021/12/21 01:00:35;;;;;;;;;;;6.50;90.20;;;;;;5006419;28;19932;-60
2021/12/21 01:03:06;;;;;;;;;;;6.50;90.20;;;;;;5023181;28;20383;-60
2021/12/21 01:05:41;;;;;;;;;;;6.50;90.20;;;;;;5023236;28;19919;-60
2021/12/21 01:08:09;;;;;;;;;;;6.50;90.20;;;;;;4992208;28;19921;-60
2021/12/21 01:13:53;;;;;;;;;;;6.50;90.10;;;;;;5021413;28;19976;-60
2021/12/21 01:18:42;;;;;;;;;;;6.50;90.10;;;;;;5010153;28;19925;-59
2021/12/21 01:21:16;;;;;;;;;;;6.50;90.10;;;;;;5023638;28;20012;-60
2021/12/21 01:26:23;;;;;;;;;;;6.50;90.00;;;;;;5006103;28;19914;-59
2021/12/21 01:29:19;;;;;;;;;;;6.40;90.00;;;;;;5005523;28;19917;-60
2021/12/21 01:31:56;;;;;;;;;;;6.40;90.00;;;;;;5009303;28;19928;-60
2021/12/21 01:34:39;;;;;;;;;;;6.40;90.00;;;;;;4991384;28;19917;-60
2021/12/21 01:37:13;;;;;;;;;;;6.40;90.00;;;;;;4993063;28;19916;-60
2021/12/21 01:50:37;;;;;;;;;;;6.30;89.90;;;;;;5007395;28;19965;-60
2021/12/21 01:53:02;;;;;;;;;;;6.30;89.80;;;;;;5007007;28;19956;-59
2021/12/21 01:55:28;;;;;;;;;;;6.30;89.80;;;;;;5006474;28;19921;-59
2021/12/21 01:57:53;;;;;;;;;;;6.30;89.70;;;;;;5022855;28;19979;-60
2021/12/21 02:00:19;;;;;;;;;;;6.30;89.70;;;;;;4988709;28;20109;-60
2021/12/21 02:02:45;;;;;;;;;;;6.20;89.60;;;;;;5006406;28;19913;-60
2021/12/21 02:05:10;;;;;;;;;;;6.30;89.70;;;;;;4989937;28;20331;-59
2021/12/21 02:07:35;;;;;;;;;;;6.20;89.50;;;;;;5005782;28;20944;-60
2021/12/21 02:10:01;;;;;;;;;;;6.20;90.00;;;;;;5005178;28;20353;-61
2021/12/21 02:12:26;;;;;;;;;;;6.20;89.40;;;;;;4987875;28;19925;-59
2021/12/21 02:14:57;;;;;;;;;;;6.20;89.30;;;;;;4987927;28;19909;-60
2021/12/21 02:20:38;;;;;;;;;;;6.20;89.40;;;;;;5005202;28;19971;-60
2021/12/21 02:23:19;;;;;;;;;;;6.20;89.40;;;;;;5008590;28;19917;-60
2021/12/21 02:31:06;;;;;;;;;;;6.10;89.20;;;;;;5007032;28;19967;-60
2021/12/21 02:33:33;;;;;;;;;;;6.10;89.20;;;;;;5004366;28;19918;-61
2021/12/21 02:35:59;;;;;;;;;;;6.10;89.00;;;;;;5023710;28;19917;-60
2021/12/21 02:38:25;;;;;;;;;;;6.10;89.10;;;;;;5005742;28;20475;-60
2021/12/21 02:40:50;;;;;;;;;;;6.10;89.00;;;;;;4989180;28;19968;-60
2021/12/21 02:43:16;;;;;;;;;;;6.20;89.00;;;;;;5004349;28;19910;-60
2021/12/21 02:45:41;;;;;;;;;;;6.10;89.00;;;;;;5004527;28;19979;-61
2021/12/21 02:48:07;;;;;;;;;;;6.10;88.90;;;;;;5006227;28;19924;-61
2021/12/21 02:50:33;;;;;;;;;;;6.10;88.90;;;;;;4988686;28;20016;-60
2021/12/21 02:53:02;;;;;;;;;;;6.10;88.80;;;;;;5020987;28;19913;-60
2021/12/21 02:55:27;;;;;;;;;;;6.10;88.80;;;;;;5003270;28;19913;-60
2021/12/21 02:57:53;;;;;;;;;;;6.10;88.80;;;;;;5004638;28;19923;-60
2021/12/21 03:00:18;;;;;;;;;;;6.10;88.80;;;;;;5020387;28;19925;-62
2021/12/21 03:02:43;;;;;;;;;;;6.10;88.70;;;;;;5006532;28;20372;-60
2021/12/21 03:05:09;;;;;;;;;;;6.00;88.70;;;;;;5003696;28;19956;-60
2021/12/21 03:10:24;;;;;;;;;;;6.10;88.70;;;;;;5007108;28;20008;-59
2021/12/21 03:15:18;;;;;;;;;;;6.00;88.60;;;;;;5023119;28;20341;-61
2021/12/21 03:17:43;;;;;;;;;;;6.00;88.60;;;;;;5005704;28;19940;-60
2021/12/21 03:20:09;;;;;;;;;;;6.00;88.70;;;;;;5004202;28;19917;-60
2021/12/21 03:22:34;;;;;;;;;;;6.00;88.70;;;;;;4989871;28;19944;-59
2021/12/21 03:25:00;;;;;;;;;;;6.00;88.60;;;;;;4990857;28;19917;-60
2021/12/21 03:27:25;;;;;;;;;;;6.00;88.60;;;;;;4988126;28;19928;-59
2021/12/21 03:29:51;;;;;;;;;;;6.00;88.60;;;;;;5003033;28;20067;-60
2021/12/21 03:32:16;;;;;;;;;;;6.00;88.50;;;;;;5004564;28;19992;-60
2021/12/21 03:34:41;;;;;;;;;;;5.90;88.40;;;;;;5004334;28;19914;-59
2021/12/21 03:37:12;;;;;;;;;;;6.00;88.40;;;;;;5004645;28;20368;-60
2021/12/21 03:39:38;;;;;;;;;;;6.00;88.40;;;;;;5019738;28;20012;-60
2021/12/21 03:42:04;;;;;;;;;;;6.00;88.30;;;;;;5004266;28;19936;-60
2021/12/21 03:44:29;;;;;;;;;;;6.00;88.40;;;;;;5025263;28;19909;-60
2021/12/21 03:46:56;;;;;;;;;;;5.90;88.30;;;;;;5008877;28;20292;-59
2021/12/21 03:52:03;;;;;;;;;;;5.90;88.20;;;;;;5025382;28;19913;-59
2021/12/21 03:54:28;;;;;;;;;;;5.90;88.10;;;;;;4992014;28;19917;-60
2021/12/21 03:56:53;;;;;;;;;;;5.90;88.20;;;;;;4991889;28;19913;-59
2021/12/21 03:59:19;;;;;;;;;;;5.90;88.10;;;;;;5006673;28;20020;-60
2021/12/21 04:01:45;;;;;;;;;;;5.90;88.00;;;;;;4992293;28;19929;-60
2021/12/21 04:04:10;;;;;;;;;;;5.90;88.10;;;;;;5007603;28;19928;-60
2021/12/21 04:06:36;;;;;;;;;;;5.90;88.10;;;;;;5005051;28;19913;-60
2021/12/21 04:09:02;;;;;;;;;;;5.90;88.00;;;;;;4993255;28;19920;-60
2021/12/21 04:11:27;;;;;;;;;;;5.80;87.90;;;;;;5024066;28;20442;-59
2021/12/21 04:13:53;;;;;;;;;;;5.80;88.00;;;;;;5025068;28;19917;-60
2021/12/21 04:16:19;;;;;;;;;;;5.80;88.10;;;;;;4992345;28;20459;-60
2021/12/21 04:18:44;;;;;;;;;;;5.80;88.00;;;;;;5008634;28;19913;-61
2021/12/21 04:21:12;;;;;;;;;;;5.80;88.00;;;;;;5006931;28;20442;-61
2021/12/21 04:23:38;;;;;;;;;;;5.80;87.90;;;;;;5008793;28;19963;-60
2021/12/21 04:26:03;;;;;;;;;;;5.80;87.90;;;;;;5007245;28;20499;-60
2021/12/21 04:28:28;;;;;;;;;;;5.80;87.90;;;;;;5006761;28;19920;-61
2021/12/21 04:30:54;;;;;;;;;;;5.80;87.90;;;;;;4990115;28;19940;-60
2021/12/21 04:33:19;;;;;;;;;;;5.80;87.90;;;;;;5008776;28;19909;-60
2021/12/21 04:35:45;;;;;;;;;;;5.80;87.90;;;;;;5007491;28;19917;-60
2021/12/21 04:38:21;;;;;;;;;;;6.00;88.10;;;;;;4989278;28;19909;-60
2021/12/21 04:40:54;;;;;;;;;;;5.80;87.80;;;;;;5009543;28;19921;-60
2021/12/21 04:43:19;;;;;;;;;;;5.80;87.90;;;;;;4990818;28;19917;-60
2021/12/21 04:45:45;;;;;;;;;;;5.80;87.90;;;;;;4990014;28;19924;-60
2021/12/21 04:48:10;;;;;;;;;;;5.80;87.90;;;;;;5006823;28;20095;-60
2021/12/21 04:50:36;;;;;;;;;;;5.80;87.80;;;;;;5006399;28;19948;-60
2021/12/21 04:53:01;;;;;;;;;;;5.70;87.70;;;;;;4990504;28;19917;-61
2021/12/21 04:55:26;;;;;;;;;;;5.70;87.70;;;;;;5008779;28;19909;-61
2021/12/21 04:57:52;;;;;;;;;;;5.70;87.90;;;;;;5003647;28;20031;-60
2021/12/21 05:00:17;;;;;;;;;;;5.70;87.80;;;;;;5005728;28;20000;-60
2021/12/21 05:02:43;;;;;;;;;;;5.70;87.80;;;;;;5007566;28;19917;-60
2021/12/21 05:05:08;;;;;;;;;;;5.70;87.80;;;;;;5022736;28;19944;-61
2021/12/21 05:07:36;;;;;;;;;;;5.70;87.80;;;;;;5008400;28;19989;-61
2021/12/21 05:10:03;;;;;;;;;;;5.70;87.80;;;;;;5007141;28;19917;-61
2021/12/21 05:12:29;;;;;;;;;;;5.80;87.90;;;;;;5006900;28;20350;-60
2021/12/21 05:14:54;;;;;;;;;;;5.70;87.70;;;;;;5005896;28;19924;-59
2021/12/21 05:17:20;;;;;;;;;;;5.70;87.70;;;;;;4991320;28;19909;-60
2021/12/21 05:19:45;;;;;;;;;;;5.70;87.90;;;;;;4989818;28;19936;-60
2021/12/21 05:22:11;;;;;;;;;;;5.70;88.00;;;;;;5022005;28;19919;-60
2021/12/21 05:24:36;;;;;;;;;;;5.70;88.00;;;;;;5018561;28;19921;-61
2021/12/21 05:27:02;;;;;;;;;;;5.70;87.90;;;;;;5006345;28;20352;-60
2021/12/21 05:29:30;;;;;;;;;;;5.70;87.90;;;;;;5005276;28;19947;-60
2021/12/21 05:31:58;;;;;;;;;;;5.70;87.90;;;;;;5006504;28;19913;-60
2021/12/21 05:34:24;;;;;;;;;;;5.70;87.90;;;;;;4988861;28;19913;-60
2021/12/21 05:36:49;;;;;;;;;;;5.70;88.10;;;;;;5007521;28;20380;-61
2021/12/21 05:39:19;;;;;;;;;;;5.70;88.20;;;;;;5022532;28;19916;-61
2021/12/21 05:41:53;;;;;;;;;;;5.70;88.20;;;;;;5008913;28;20288;-60
2021/12/21 05:44:19;;;;;;;;;;;5.70;88.20;;;;;;5021639;28;19986;-60
2021/12/21 05:46:44;;;;;;;;;;;5.70;88.80;;;;;;5004712;28;20008;-60
2021/12/21 05:49:10;;;;;;;;;;;5.70;88.20;;;;;;5005681;28;19917;-60
2021/12/21 05:51:35;;;;;;;;;;;5.70;88.20;;;;;;5004629;28;19913;-60
2021/12/21 05:54:01;;;;;;;;;;;5.70;88.40;;;;;;5007289;28;19944;-60
2021/12/21 05:56:26;;;;;;;;;;;5.70;88.60;;;;;;4989745;28;19930;-60
2021/12/21 05:58:52;;;;;;;;;;;5.70;88.80;;;;;;5005220;28;19967;-60
2021/12/21 06:01:17;;;;;;;;;;;5.60;88.70;;;;;;5004700;28;19933;-61
2021/12/21 06:03:43;;;;;;;;;;;5.70;88.90;;;;;;5006593;28;19920;-59
2021/12/21 06:06:13;;;;;;;;;;;5.60;88.80;;;;;;5021189;28;19938;-60
2021/12/21 06:08:39;;;;;;;;;;;5.60;88.80;;;;;;5022097;28;20648;-60
2021/12/21 06:11:06;;;;;;;;;;;5.60;89.50;;;;;;5020011;28;19964;-60
2021/12/21 06:13:58;;;;;;;;;;;5.70;89.00;;;;;;5002142;28;20662;-60
2021/12/21 06:27:25;;;;;;;;;;;5.70;88.90;;;;;;5013102;28;20426;-60
2021/12/21 06:29:51;;;;;;;;;;;5.70;89.00;;;;;;5004696;28;19971;-60
2021/12/21 06:32:16;;;;;;;;;;;5.60;88.90;;;;;;5019784;28;19913;-60
2021/12/21 06:34:42;;;;;;;;;;;5.60;89.00;;;;;;4989697;28;20054;-60
2021/12/21 06:37:07;;;;;;;;;;;5.60;89.00;;;;;;5002294;28;19921;-60
2021/12/21 06:39:33;;;;;;;;;;;5.60;89.00;;;;;;4999378;28;19921;-61
2021/12/21 06:41:59;;;;;;;;;;;5.60;89.00;;;;;;5018665;28;19925;-61
2021/12/21 06:44:24;;;;;;;;;;;5.60;89.10;;;;;;4987509;28;19924;-60
2021/12/21 06:52:02;;;;;;;;;;;5.60;89.10;;;;;;5006700;28;19929;-60
2021/12/21 06:54:28;;;;;;;;;;;5.60;89.10;;;;;;5000479;28;19921;-61
2021/12/21 06:56:53;;;;;;;;;;;5.60;89.10;;;;;;5003176;28;19958;-62
2021/12/21 06:59:19;;;;;;;;;;;5.60;89.10;;;;;;5019111;28;19964;-60
2021/12/21 07:01:45;;;;;;;;;;;5.60;89.10;;;;;;5005568;28;19932;-60
2021/12/21 07:04:11;;;;;;;;;;;5.60;89.10;;;;;;5005661;28;20258;-60
2021/12/21 07:06:36;;;;;;;;;;;5.60;89.10;;;;;;5004124;28;20213;-60
2021/12/21 07:09:15;;;;;;;;;;;5.50;89.00;;;;;;5020731;28;20281;-63
2021/12/21 07:11:44;;;;;;;;;;;5.60;89.00;;;;;;5004340;28;20344;-63
2021/12/21 07:19:39;;;;;;;;;;;5.60;88.80;;;;;;5023499;28;19927;-62
2021/12/21 07:22:06;;;;;;;;;;;5.50;88.90;;;;;;5007133;28;20016;-62
2021/12/21 07:24:32;;;;;;;;;;;5.50;88.70;;;;;;4992006;28;20261;-60
2021/12/21 07:26:57;;;;;;;;;;;5.50;88.80;;;;;;5010228;28;19932;-60
2021/12/21 07:29:23;;;;;;;;;;;5.50;88.80;;;;;;5006425;28;20292;-61
2021/12/21 07:31:48;;;;;;;;;;;5.50;88.80;;;;;;5004654;28;19921;-60
2021/12/21 07:34:13;;;;;;;;;;;5.50;88.90;;;;;;4989663;28;19921;-60
2021/12/21 07:36:42;;;;;;;;;;;5.40;88.70;;;;;;4991432;28;19925;-60
2021/12/21 07:39:08;;;;;;;;;;;5.50;88.70;;;;;;5026570;28;19913;-60
2021/12/21 07:41:34;;;;;;;;;;;5.50;88.70;;;;;;5007912;28;19921;-60
2021/12/21 07:43:59;;;;;;;;;;;5.50;88.60;;;;;;5006698;28;19925;-59
2021/12/21 07:46:25;;;;;;;;;;;5.40;88.50;;;;;;5006443;28;20464;-61
2021/12/21 07:48:50;;;;;;;;;;;5.50;88.60;;;;;;5009209;28;19916;-60
2021/12/21 07:51:16;;;;;;;;;;;5.50;88.50;;;;;;4990463;28;20008;-60
2021/12/21 07:53:42;;;;;;;;;;;5.50;88.50;;;;;;4988831;28;19925;-60
2021/12/21 07:56:07;;;;;;;;;;;5.50;88.50;;;;;;4991256;28;20322;-61
2021/12/21 07:58:33;;;;;;;;;;;5.50;88.40;;;;;;4992157;28;19926;-60
2021/12/21 08:00:59;;;;;;;;;;;5.50;88.30;;;;;;5023626;28;19923;-60
2021/12/21 08:03:24;;;;;;;;;;;5.40;88.30;;;;;;4985364;28;19913;-60
2021/12/21 08:05:53;;;;;;;;;;;5.50;88.30;;;;;;5006713;28;20419;-62
2021/12/21 08:08:21;;;;;;;;;;;5.50;88.30;;;;;;5000085;28;19933;-60
2021/12/21 08:11:08;;;;;;;;;;;5.50;88.40;;;;;;4993977;28;19936;-60
2021/12/21 08:13:33;;;;;;;;;;;5.50;88.20;;;;;;5009625;28;20075;-60
2021/12/21 08:15:59;;;;;;;;;;;5.50;88.10;;;;;;5007332;28;20011;-60
2021/12/21 08:18:24;;;;;;;;;;;5.50;88.20;;;;;;5008333;28;19949;-60
2021/12/21 08:20:50;;;;;;;;;;;5.50;88.30;;;;;;5009280;28;19928;-60
2021/12/21 08:23:15;;;;;;;;;;;5.50;88.20;;;;;;5024700;28;19986;-60
2021/12/21 08:25:41;;;;;;;;;;;5.40;88.20;;;;;;5009820;28;19946;-60
2021/12/21 08:28:06;;;;;;;;;;;5.50;88.10;;;;;;4988550;28;20031;-60
2021/12/21 08:30:32;;;;;;;;;;;5.40;88.10;;;;;;5004017;28;20253;-60
2021/12/21 08:32:57;;;;;;;;;;;5.40;88.10;;;;;;5027655;28;19913;-59
2021/12/21 08:35:23;;;;;;;;;;;5.50;88.10;;;;;;5010145;28;19928;-60
2021/12/21 08:37:52;;;;;;;;;;;5.40;88.20;;;;;;4992290;28;19986;-61
2021/12/21 08:40:21;;;;;;;;;;;5.40;88.10;;;;;;5005151;28;19913;-60
2021/12/21 08:42:48;;;;;;;;;;;5.50;88.10;;;;;;5009586;28;19917;-60
2021/12/21 08:45:14;;;;;;;;;;;5.50;88.20;;;;;;5010687;28;20349;-60
2021/12/21 08:47:39;;;;;;;;;;;5.40;88.20;;;;;;5007588;28;19987;-59
2021/12/21 08:50:05;;;;;;;;;;;5.40;88.10;;;;;;5021801;28;19917;-60
2021/12/21 08:52:31;;;;;;;;;;;5.50;88.00;;;;;;5010703;28;19921;-60
2021/12/21 08:54:56;;;;;;;;;;;5.40;88.00;;;;;;5008083;28;20389;-60
2021/12/21 08:57:22;;;;;;;;;;;5.50;88.10;;;;;;5007489;28;19913;-60
2021/12/21 08:59:47;;;;;;;;;;;5.50;88.10;;;;;;5005909;28;19924;-61
2021/12/21 09:02:13;;;;;;;;;;;5.50;88.20;;;;;;4992747;28;19917;-59
2021/12/21 09:04:40;;;;;;;;;;;5.50;88.10;;;;;;5003815;28;19925;-61
2021/12/21 09:07:05;;;;;;;;;;;5.50;88.20;;;;;;5007639;28;19917;-59
2021/12/21 09:09:30;;;;;;;;;;;5.50;88.20;;;;;;4993072;28;19974;-59
2021/12/21 09:11:56;;;;;;;;;;;5.50;88.20;;;;;;4991883;28;19921;-60
2021/12/21 09:14:22;;;;;;;;;;;5.40;88.70;;;;;;4992377;28;19921;-61
2021/12/21 09:16:47;;;;;;;;;;;5.50;88.00;;;;;;5005815;28;20410;-60
2021/12/21 09:19:13;;;;;;;;;;;5.50;88.10;;;;;;5003811;28;19925;-61
2021/12/21 09:21:38;;;;;;;;;;;5.50;88.00;;;;;;5005689;28;19967;-60
2021/12/21 09:24:04;;;;;;;;;;;5.50;88.10;;;;;;4991577;28;19928;-59
2021/12/21 09:26:29;;;;;;;;;;;5.50;88.00;;;;;;5006734;28;19928;-63
2021/12/21 09:28:56;;;;;;;;;;;5.50;88.00;;;;;;4994877;28;19925;-63
2021/12/21 09:31:22;;;;;;;;;;;5.50;88.00;;;;;;5003924;28;19929;-62
2021/12/21 09:33:47;;;;;;;;;;;5.50;87.90;;;;;;5015899;28;19937;-62
2021/12/21 09:36:13;;;;;;;;;;;5.50;88.00;;;;;;5001235;28;19922;-63
2021/12/21 09:38:38;;;;;;;;;;;5.60;88.10;;;;;;5011678;28;19940;-62
2021/12/21 09:41:04;;;;;;;;;;;5.60;88.00;;;;;;5015934;28;20380;-62
2021/12/21 09:43:29;;;;;;;;;;;5.50;87.90;;;;;;5005143;28;19944;-63
2021/12/21 09:45:55;;;;;;;;;;;5.50;87.80;;;;;;5004659;28;20415;-63
2021/12/21 09:48:22;;;;;;;;;;;5.60;87.80;;;;;;5005484;28;19967;-63
2021/12/21 09:50:47;;;;;;;;;;;5.50;87.70;;;;;;5006146;28;19998;-63
2021/12/21 09:53:13;;;;;;;;;;;5.60;87.70;;;;;;5005541;28;19914;-64
2021/12/21 09:55:38;;;;;;;;;;;5.60;87.80;;;;;;5023412;28;19921;-63
2021/12/21 09:58:04;;;;;;;;;;;5.50;87.70;;;;;;4989242;28;19917;-63
2021/12/21 10:00:31;;;;;;;;;;;5.50;87.60;;;;;;4989282;28;19921;-63
2021/12/21 10:03:02;;;;;;;;;;;5.60;87.70;;;;;;4998570;28;20083;-62
2021/12/21 10:05:28;;;;;;;;;;;5.60;87.70;;;;;;5019757;28;19924;-62
2021/12/21 10:08:00;;;;;;;;;;;5.50;87.50;;;;;;4988892;28;19909;-63
2021/12/21 10:10:26;;;;;;;;;;;5.60;87.40;;;;;;5002352;28;19924;-62
2021/12/21 10:12:51;;;;;;;;;;;5.60;87.50;;;;;;4988334;28;19966;-63
2021/12/21 10:15:21;;;;;;;;;;;5.60;87.40;;;;;;5002834;28;19953;-63
2021/12/21 10:17:50;;;;;;;;;;;5.60;87.30;;;;;;4988150;28;19968;-62
2021/12/21 10:20:29;;;;;;;;;;;5.60;87.20;;;;;;5022511;28;19960;-62
2021/12/21 10:22:54;;;;;;;;;;;5.60;87.20;;;;;;5017412;28;19917;-62
2021/12/21 10:25:19;;;;;;;;;;;5.60;87.20;;;;;;5005280;28;19924;-63
2021/12/21 10:27:45;;;;;;;;;;;5.60;87.20;;;;;;5002812;28;20443;-63
2021/12/21 10:30:11;;;;;;;;;;;5.60;87.10;;;;;;4987948;28;19973;-63
2021/12/21 10:32:36;;;;;;;;;;;5.60;87.10;;;;;;5006056;28;19917;-62
2021/12/21 10:35:05;;;;;;;;;;;5.60;87.00;;;;;;5000312;28;19917;-63
2021/12/21 10:37:32;;;;;;;;;;;5.60;86.90;;;;;;5018190;28;20073;-62
2021/12/21 10:40:22;;;;;;;;;;;5.60;86.90;;;;;;5019110;28;19917;-62
2021/12/21 10:42:49;;;;;;;;;;;5.60;86.80;;;;;;5002307;28;19917;-62
2021/12/21 10:45:15;;;;;;;;;;;5.70;86.90;;;;;;5001468;28;19963;-62
2021/12/21 10:47:42;;;;;;;;;;;5.60;86.70;;;;;;5001156;28;20979;-63
2021/12/21 10:50:08;;;;;;;;;;;5.70;86.80;;;;;;5013623;28;19917;-62
2021/12/21 10:52:33;;;;;;;;;;;5.70;86.80;;;;;;5017243;28;20304;-61
2021/12/21 10:54:59;;;;;;;;;;;5.70;86.60;;;;;;5003603;28;19921;-62
2021/12/21 10:57:31;;;;;;;;;;;5.70;86.60;;;;;;5006157;28;19943;-63
2021/12/21 10:59:58;;;;;;;;;;;5.70;86.50;;;;;;5000937;28;20273;-62
2021/12/21 11:02:29;;;;;;;;;;;5.70;86.30;;;;;;5005823;28;20175;-61
2021/12/21 11:04:57;;;;;;;;;;;5.80;86.30;;;;;;5019936;28;19918;-60
2021/12/21 11:07:34;;;;;;;;;;;5.70;86.40;;;;;;4988761;28;19925;-60
2021/12/21 11:10:09;;;;;;;;;;;5.80;86.40;;;;;;5003396;28;19921;-63
2021/12/21 11:12:41;;;;;;;;;;;5.80;86.30;;;;;;5022401;28;19920;-61
2021/12/21 11:15:08;;;;;;;;;;;5.80;86.30;;;;;;4989588;28;19921;-61
2021/12/21 11:17:34;;;;;;;;;;;5.80;86.30;;;;;;5003659;28;20025;-61
2021/12/21 11:19:59;;;;;;;;;;;5.80;86.20;;;;;;5004093;28;20043;-61
2021/12/21 11:22:26;;;;;;;;;;;5.80;86.20;;;;;;5005660;28;19913;-62
2021/12/21 11:24:51;;;;;;;;;;;5.80;86.20;;;;;;4999490;28;19925;-59
2021/12/21 11:27:16;;;;;;;;;;;5.80;86.30;;;;;;5005250;28;19921;-61
2021/12/21 11:29:42;;;;;;;;;;;6.00;86.40;;;;;;5006161;28;20020;-60
2021/12/21 11:32:08;;;;;;;;;;;5.80;86.30;;;;;;5000751;28;20349;-61
2021/12/21 11:34:36;;;;;;;;;;;5.80;86.30;;;;;;5005071;28;20381;-60
2021/12/21 11:39:46;;;;;;;;;;;5.90;86.20;;;;;;5009240;28;19936;-60
2021/12/21 11:42:17;;;;;;;;;;;5.80;86.10;;;;;;5021732;28;19917;-61
2021/12/21 11:44:52;;;;;;;;;;;5.80;86.10;;;;;;4985164;28;19947;-60
2021/12/21 11:47:18;;;;;;;;;;;5.80;86.10;;;;;;5016645;28;20027;-60
2021/12/21 11:49:47;;;;;;;;;;;5.80;86.10;;;;;;5002040;28;19924;-61
2021/12/21 11:52:18;;;;;;;;;;;5.90;86.00;;;;;;5000498;28;19922;-60
2021/12/21 11:54:45;;;;;;;;;;;5.90;86.00;;;;;;5006737;28;19913;-61
2021/12/21 11:57:10;;;;;;;;;;;5.90;86.30;;;;;;4982266;28;19918;-60
2021/12/21 11:59:36;;;;;;;;;;;5.90;86.20;;;;;;5006127;28;20741;-60
2021/12/21 12:02:03;;;;;;;;;;;5.90;86.00;;;;;;5019828;28;19925;-60
2021/12/21 12:04:29;;;;;;;;;;;5.90;86.00;;;;;;5000120;28;19921;-60
2021/12/21 12:06:57;;;;;;;;;;;5.90;85.90;;;;;;5002380;28;20003;-60
2021/12/21 12:09:26;;;;;;;;;;;5.90;85.90;;;;;;5002832;28;20225;-60
2021/12/21 12:11:51;;;;;;;;;;;5.90;85.90;;;;;;5006142;28;19963;-60
2021/12/21 12:14:18;;;;;;;;;;;5.90;85.90;;;;;;5005078;28;20428;-60
2021/12/21 12:16:44;;;;;;;;;;;5.90;85.70;;;;;;5005110;28;19913;-60
2021/12/21 12:19:11;;;;;;;;;;;6.00;85.80;;;;;;5006308;28;19928;-61
2021/12/21 12:21:36;;;;;;;;;;;5.90;85.70;;;;;;5022812;28;19913;-60
2021/12/21 12:24:02;;;;;;;;;;;6.00;85.60;;;;;;5020720;28;19970;-60
2021/12/21 12:26:28;;;;;;;;;;;6.00;85.80;;;;;;5005694;28;20391;-60
2021/12/21 12:28:54;;;;;;;;;;;6.00;85.70;;;;;;4991224;28;20008;-59
2021/12/21 12:31:35;;;;;;;;;;;6.00;85.50;;;;;;5002799;28;21425;-60
2021/12/21 12:34:00;;;;;;;;;;;6.00;85.50;;;;;;4988273;28;19921;-61
2021/12/21 12:36:36;;;;;;;;;;;6.00;85.60;;;;;;5021317;28;19975;-60
2021/12/21 12:39:02;;;;;;;;;;;6.00;85.50;;;;;;5005569;28;19990;-61
2021/12/21 12:41:28;;;;;;;;;;;6.00;85.60;;;;;;5004695;28;19913;-60
2021/12/21 12:43:53;;;;;;;;;;;6.00;85.50;;;;;;5003961;28;19928;-60
2021/12/21 12:46:23;;;;;;;;;;;6.00;85.50;;;;;;4991644;28;19917;-60
2021/12/21 12:48:48;;;;;;;;;;;6.00;85.30;;;;;;5006159;28;19917;-61
2021/12/21 12:51:43;;;;;;;;;;;6.00;85.30;;;;;;5006686;28;19923;-60
2021/12/21 12:54:12;;;;;;;;;;;6.00;85.20;;;;;;5007640;28;19979;-61
2021/12/21 12:56:41;;;;;;;;;;;6.00;85.10;;;;;;4990211;28;19932;-61
2021/12/21 12:59:06;;;;;;;;;;;6.00;85.10;;;;;;5006181;28;19985;-60
2021/12/21 13:01:32;;;;;;;;;;;6.00;85.20;;;;;;4996186;28;20256;-60
2021/12/21 13:03:59;;;;;;;;;;;6.00;85.10;;;;;;4980426;28;20285;-60
2021/12/21 13:06:31;;;;;;;;;;;6.00;85.10;;;;;;4994374;28;20308;-60
2021/12/21 13:08:56;;;;;;;;;;;6.00;85.10;;;;;;5002487;28;20373;-60
2021/12/21 13:11:23;;;;;;;;;;;6.00;85.20;;;;;;5004708;28;19932;-60
2021/12/21 13:13:49;;;;;;;;;;;6.00;85.10;;;;;;5010842;28;19928;-61
2021/12/21 13:16:21;;;;;;;;;;;6.00;85.10;;;;;;5004997;28;20067;-60
2021/12/21 13:19:07;;;;;;;;;;;6.10;85.10;;;;;;5017256;28;19917;-60
2021/12/21 13:21:54;;;;;;;;;;;6.00;85.10;;;;;;5005409;28;19916;-61
2021/12/21 13:24:21;;;;;;;;;;;6.00;85.10;;;;;;5017346;28;20024;-60
2021/12/21 13:26:51;;;;;;;;;;;6.00;85.20;;;;;;4988831;28;19932;-60
2021/12/21 13:29:18;;;;;;;;;;;6.00;85.10;;;;;;5021586;28;19917;-62
2021/12/21 13:31:44;;;;;;;;;;;6.00;85.10;;;;;;4982861;28;20391;-60
2021/12/21 13:34:10;;;;;;;;;;;6.10;85.30;;;;;;4980359;28;19917;-60
2021/12/21 13:36:37;;;;;;;;;;;6.10;85.30;;;;;;4998749;28;19944;-60
2021/12/21 13:39:14;;;;;;;;;;;6.10;85.10;;;;;;4986709;28;19922;-60
2021/12/21 13:41:49;;;;;;;;;;;6.10;85.10;;;;;;5003556;28;19990;-61
2021/12/21 13:44:21;;;;;;;;;;;6.10;85.00;;;;;;4986814;28;20084;-60
2021/12/21 13:46:46;;;;;;;;;;;6.10;85.10;;;;;;5022212;28;19959;-60
2021/12/21 13:49:12;;;;;;;;;;;6.10;85.20;;;;;;5002781;28;20765;-61
2021/12/21 13:51:38;;;;;;;;;;;6.10;85.10;;;;;;5004754;28;19952;-60
2021/12/21 13:54:03;;;;;;;;;;;6.10;85.10;;;;;;5003122;28;19917;-61
2021/12/21 13:56:30;;;;;;;;;;;6.10;85.20;;;;;;4987306;28;19922;-59
2021/12/21 13:58:55;;;;;;;;;;;6.10;85.10;;;;;;5002446;28;19931;-60
2021/12/21 14:01:22;;;;;;;;;;;6.10;85.20;;;;;;4984859;28;19922;-61
2021/12/21 14:03:58;;;;;;;;;;;6.10;85.10;;;;;;4994950;28;20020;-60
2021/12/21 14:06:24;;;;;;;;;;;6.10;85.00;;;;;;5001093;28;19913;-61
2021/12/21 14:08:51;;;;;;;;;;;6.10;85.10;;;;;;5001274;28;19921;-61
2021/12/21 14:11:17;;;;;;;;;;;6.10;85.20;;;;;;5011815;28;19922;-60
2021/12/21 14:13:43;;;;;;;;;;;6.10;85.40;;;;;;4997724;28;19917;-60
2021/12/21 14:16:17;;;;;;;;;;;6.10;85.40;;;;;;4999385;28;19973;-61
2021/12/21 14:18:45;;;;;;;;;;;6.10;85.30;;;;;;5003877;28;19913;-61
2021/12/21 14:21:17;;;;;;;;;;;6.10;85.30;;;;;;4982258;28;19920;-60
2021/12/21 14:23:43;;;;;;;;;;;6.10;85.30;;;;;;5015361;28;19920;-61
2021/12/21 14:26:13;;;;;;;;;;;6.10;85.40;;;;;;5004730;28;19928;-60
2021/12/21 14:28:48;;;;;;;;;;;6.10;85.40;;;;;;5003331;28;20027;-60
2021/12/21 14:31:14;;;;;;;;;;;6.10;85.40;;;;;;5013981;28;19925;-60
2021/12/21 14:33:48;;;;;;;;;;;6.10;85.30;;;;;;4999849;28;20565;-60
2021/12/21 14:36:15;;;;;;;;;;;6.20;85.40;;;;;;5004254;28;20273;-60
2021/12/21 14:38:53;;;;;;;;;;;6.20;85.40;;;;;;5003089;28;19959;-61
2021/12/21 14:41:19;;;;;;;;;;;6.20;85.60;;;;;;5004454;28;19986;-60
2021/12/21 14:43:45;;;;;;;;;;;6.20;85.50;;;;;;4986512;28;19952;-61
2021/12/21 14:46:16;;;;;;;;;;;6.30;85.40;;;;;;5001123;28;21312;-60
2021/12/21 14:48:47;;;;;;;;;;;6.30;85.20;;;;;;4987904;28;19917;-60
2021/12/21 14:51:13;;;;;;;;;;;6.30;85.50;;;;;;5001021;28;19935;-59
2021/12/21 14:53:49;;;;;;;;;;;6.30;85.50;;;;;;4985500;28;20016;-61
2021/12/21 14:56:30;;;;;;;;;;;6.30;85.30;;;;;;5004516;28;20438;-60
2021/12/21 14:59:00;;;;;;;;;;;6.30;85.40;;;;;;5003950;28;19924;-61
2021/12/21 15:01:33;;;;;;;;;;;6.30;86.00;;;;;;4998903;28;19929;-61
2021/12/21 15:03:58;;;;;;;;;;;6.30;85.30;;;;;;5002650;28;19916;-60
2021/12/21 15:06:24;;;;;;;;;;;6.30;85.40;;;;;;5002090;28;19914;-61
2021/12/21 15:08:49;;;;;;;;;;;6.30;85.50;;;;;;5013541;28;19921;-60
2021/12/21 15:11:21;;;;;;;;;;;6.30;86.00;;;;;;5019375;28;19924;-61
2021/12/21 15:13:47;;;;;;;;;;;6.30;85.70;;;;;;5002738;28;19971;-60
2021/12/21 15:16:12;;;;;;;;;;;6.30;85.30;;;;;;5002321;28;19916;-61
2021/12/21 15:18:38;;;;;;;;;;;6.30;85.30;;;;;;5006102;28;19910;-61
2021/12/21 15:21:04;;;;;;;;;;;6.30;85.40;;;;;;5005237;28;20704;-62
2021/12/21 15:23:29;;;;;;;;;;;6.20;85.10;;;;;;4989188;28;19917;-61
2021/12/21 15:25:55;;;;;;;;;;;6.20;85.10;;;;;;5004564;28;19921;-62
2021/12/21 15:28:20;;;;;;;;;;;6.20;85.10;;;;;;5022200;28;20375;-62
2021/12/21 15:30:46;;;;;;;;;;;6.20;85.20;;;;;;5004984;28;19919;-61
2021/12/21 15:33:11;;;;;;;;;;;6.20;85.10;;;;;;5001084;28;20387;-61
2021/12/21 15:35:37;;;;;;;;;;;6.20;85.00;;;;;;5005391;28;20000;-61